createdAt,value
2023-12-31T00:00:14.842Z,100235.97
2023-12-31T00:02:46.812Z,100241.28
2023-12-31T00:05:18.995Z,100228.09
2023-12-31T00:07:51.017Z,100208.00
2023-12-31T00:10:23.122Z,100207.09
2023-12-31T00:12:55.242Z,100204.53
2023-12-31T00:15:27.233Z,100204.53
2023-12-31T00:17:59.279Z,100189.59
2023-12-31T00:20:31.242Z,100182.63
2023-12-31T00:23:03.689Z,100169.50
2023-12-31T00:25:36.049Z,100166.81
2023-12-31T00:28:08.042Z,100158.09
2023-12-31T00:30:40.042Z,100162.44
2023-12-31T00:33:12.221Z,100126.19
2023-12-31T00:35:44.297Z,100159.81
2023-12-31T00:38:16.295Z,100158.09
2023-12-31T00:40:48.259Z,100138.81
2023-12-31T00:43:20.305Z,100127.53
2023-12-31T00:45:52.249Z,100126.63
2023-12-31T00:48:24.263Z,100121.38
2023-12-31T00:50:56.285Z,100127.53
2023-12-31T00:53:28.290Z,100107.38
2023-12-31T00:56:00.426Z,100110.94
2023-12-31T00:58:32.441Z,100116.19
2023-12-31T01:01:04.702Z,100115.25
2023-12-31T01:03:36.738Z,100114.41
2023-12-31T01:06:09.354Z,100103.78
2023-12-31T01:08:41.304Z,100111.84
2023-12-31T01:11:13.497Z,100092.44
2023-12-31T01:13:45.567Z,100076.50
2023-12-31T01:16:17.789Z,100080.25
2023-12-31T01:18:49.844Z,100074.13
2023-12-31T01:21:21.802Z,100058.19
2023-12-31T01:23:54.064Z,100073.34
2023-12-31T01:26:26.029Z,100056.63
2023-12-31T01:28:58.023Z,100056.63
2023-12-31T01:31:29.938Z,100060.09
2023-12-31T01:34:01.951Z,100039.88
2023-12-31T01:36:33.979Z,100048.66
2023-12-31T01:39:05.967Z,100046.91
2023-12-31T01:41:39.471Z,100039.03
2023-12-31T01:44:11.537Z,100032.06
2023-12-31T01:46:43.618Z,100023.28
2023-12-31T01:49:16.074Z,100021.53
2023-12-31T01:51:48.703Z,100010.94
2023-12-31T01:54:21.001Z,100021.53
2023-12-31T01:56:54.517Z,100009.25
2023-12-31T01:59:27.624Z,100001.25
2023-12-31T02:02:00.345Z,100003.16
2023-12-31T02:04:37.333Z,99988.19
2023-12-31T02:07:09.409Z,99998.75
2023-12-31T02:09:41.836Z,99989.13
2023-12-31T02:12:14.038Z,99991.75
2023-12-31T02:14:46.204Z,99985.63
2023-12-31T02:17:18.297Z,99982.09
2023-12-31T02:19:50.257Z,99977.69
2023-12-31T02:22:22.895Z,99974.28
2023-12-31T02:25:05.244Z,99930.97
2023-12-31T02:27:37.207Z,99952.31
2023-12-31T02:30:09.734Z,99941.81
2023-12-31T02:32:41.733Z,99940.94
2023-12-31T02:35:14.232Z,99936.56
2023-12-31T02:37:46.227Z,99929.59
2023-12-31T02:40:19.889Z,99918.25
2023-12-31T02:42:51.960Z,99913.84
2023-12-31T02:45:23.918Z,99905.06
2023-12-31T02:47:55.994Z,99880.28
2023-12-31T02:50:28.014Z,99897.22
2023-12-31T02:53:00.411Z,99884.09
2023-12-31T02:55:32.541Z,99878.88
2023-12-31T02:58:04.700Z,99873.59
2023-12-31T03:00:36.696Z,99861.31
2023-12-31T03:03:09.211Z,99868.28
2023-12-31T03:05:41.753Z,99856.88
2023-12-31T03:08:13.844Z,99849.84
2023-12-31T03:10:45.898Z,99849.00
2023-12-31T03:13:17.895Z,99842.84
2023-12-31T03:15:49.918Z,99848.94
2023-12-31T03:20:53.754Z,99824.47
2023-12-31T03:23:26.024Z,99813.97
2023-12-31T03:25:58.108Z,99813.03
2023-12-31T03:28:30.018Z,99806.88
2023-12-31T03:31:02.122Z,99795.50
2023-12-31T03:33:34.165Z,99783.22
2023-12-31T03:36:07.407Z,99784.09
2023-12-31T03:38:39.461Z,99777.09
2023-12-31T03:41:11.437Z,99762.22
2023-12-31T03:43:43.443Z,99747.34
2023-12-31T03:46:16.041Z,99742.94
2023-12-31T03:48:48.281Z,99741.19
2023-12-31T03:51:20.304Z,99720.13
2023-12-31T03:53:52.387Z,99732.53
2023-12-31T03:56:24.319Z,99718.53
2023-12-31T03:58:56.282Z,99710.66
2023-12-31T04:01:28.319Z,99708.03
2023-12-31T04:04:01.263Z,99700.97
2023-12-31T04:06:33.252Z,99694.84
2023-12-31T04:09:05.218Z,99685.22
2023-12-31T04:11:37.203Z,99671.97
2023-12-31T04:14:09.156Z,99674.72
2023-12-31T04:16:41.252Z,99686.13
2023-12-31T04:19:15.846Z,99664.19
2023-12-31T04:21:48.084Z,99666.91
2023-12-31T04:24:20.035Z,99668.59
2023-12-31T04:26:51.992Z,99658.06
2023-12-31T04:29:24.356Z,99650.19
2023-12-31T04:31:56.434Z,99634.47
2023-12-31T04:34:28.499Z,99644.94
2023-12-31T04:37:00.457Z,99644.97
2023-12-31T04:39:32.378Z,99634.38
2023-12-31T04:42:04.558Z,99647.59
2023-12-31T04:44:36.470Z,99632.72
2023-12-31T04:47:08.445Z,99630.09
2023-12-31T04:49:40.440Z,99609.00
2023-12-31T04:52:12.506Z,99626.59
2023-12-31T04:54:44.442Z,99609.97
2023-12-31T04:57:16.502Z,99611.75
2023-12-31T04:59:48.449Z,99601.25
2023-12-31T05:02:20.455Z,99602.13
2023-12-31T05:04:52.500Z,99574.84
2023-12-31T05:07:24.527Z,99582.78
2023-12-31T05:09:56.619Z,99585.53
2023-12-31T05:12:28.595Z,99582.91
2023-12-31T05:15:00.580Z,99574.16
2023-12-31T05:17:32.627Z,99575.91
2023-12-31T05:20:05.250Z,99567.19
2023-12-31T05:22:37.293Z,99565.47
2023-12-31T05:25:09.809Z,99550.56
2023-12-31T05:27:41.801Z,99545.31
2023-12-31T05:30:14.280Z,99551.44
2023-12-31T05:32:46.283Z,99547.03
2023-12-31T05:35:18.280Z,99532.16
2023-12-31T05:37:50.252Z,99520.78
2023-12-31T05:40:22.259Z,99516.66
2023-12-31T05:42:54.212Z,99522.59
2023-12-31T05:45:26.188Z,99512.03
2023-12-31T05:47:58.480Z,99514.69
2023-12-31T05:50:30.965Z,99502.47
2023-12-31T05:53:03.155Z,99503.31
2023-12-31T05:55:35.379Z,99504.19
2023-12-31T05:58:07.341Z,99491.91
2023-12-31T06:00:39.421Z,99500.66
2023-12-31T06:03:11.402Z,99494.59
2023-12-31T06:05:43.551Z,99493.72
2023-12-31T06:08:15.520Z,99491.09
2023-12-31T06:10:47.466Z,99490.25
2023-12-31T06:13:19.581Z,99471.81
2023-12-31T06:15:51.638Z,99474.53
2023-12-31T06:18:23.686Z,99478.00
2023-12-31T06:20:55.701Z,99461.41
2023-12-31T06:23:27.633Z,99469.28
2023-12-31T06:25:59.780Z,99449.09
2023-12-31T06:28:31.826Z,99444.69
2023-12-31T06:31:04.116Z,99458.81
2023-12-31T06:33:36.257Z,99443.03
2023-12-31T06:36:08.336Z,99450.91
2023-12-31T06:38:41.900Z,99435.16
2023-12-31T06:41:13.959Z,99427.31
2023-12-31T06:43:45.926Z,99422.06
2023-12-31T06:46:18.047Z,99400.94
2023-12-31T06:48:50.073Z,99407.19
2023-12-31T06:51:22.081Z,99394.09
2023-12-31T06:53:54.137Z,99375.56
2023-12-31T06:56:26.139Z,99401.97
2023-12-31T06:58:58.237Z,99389.72
2023-12-31T07:01:30.233Z,99387.13
2023-12-31T07:04:02.217Z,99385.44
2023-12-31T07:06:35.981Z,99383.75
2023-12-31T07:09:09.253Z,99387.25
2023-12-31T07:11:41.222Z,99390.78
2023-12-31T07:14:13.193Z,99376.75
2023-12-31T07:16:45.192Z,99368.91
2023-12-31T07:19:17.528Z,99364.56
2023-12-31T07:21:49.573Z,99351.47
2023-12-31T07:24:22.235Z,99354.13
2023-12-31T07:26:55.026Z,99347.16
2023-12-31T07:29:27.450Z,99345.41
2023-12-31T07:31:59.719Z,99338.41
2023-12-31T07:34:31.685Z,99345.44
2023-12-31T07:37:03.802Z,99330.63
2023-12-31T07:39:35.793Z,99330.63
2023-12-31T07:42:08.002Z,99329.78
2023-12-31T07:44:40.021Z,99332.41
2023-12-31T07:47:12.062Z,99320.19
2023-12-31T07:49:44.144Z,99314.06
2023-12-31T07:52:16.412Z,99319.34
2023-12-31T07:54:48.471Z,99312.56
2023-12-31T07:57:20.956Z,99308.03
2023-12-31T07:59:53.000Z,99318.50
2023-12-31T08:02:24.962Z,99299.22
2023-12-31T08:04:57.084Z,99300.13
2023-12-31T08:07:29.070Z,99301.91
2023-12-31T08:10:01.100Z,99301.91
2023-12-31T08:12:33.132Z,99304.53
2023-12-31T08:15:07.009Z,99304.53
2023-12-31T08:17:39.201Z,99278.22
2023-12-31T08:20:12.335Z,99308.03
2023-12-31T08:22:44.307Z,99308.03
2023-12-31T08:25:16.366Z,99315.03
2023-12-31T08:27:48.386Z,99309.75
2023-12-31T08:30:21.323Z,99316.75
2023-12-31T08:32:53.415Z,99290.47
2023-12-31T08:35:27.419Z,99312.34
2023-12-31T08:37:59.606Z,99307.94
2023-12-31T08:40:31.727Z,99294.81
2023-12-31T08:43:04.748Z,99310.56
2023-12-31T08:45:40.517Z,99301.78
2023-12-31T08:48:12.651Z,99298.25
2023-12-31T08:50:45.607Z,99303.44
2023-12-31T08:53:17.623Z,99298.19
2023-12-31T08:55:51.858Z,99307.81
2023-12-31T08:58:24.290Z,99306.94
2023-12-31T09:00:56.923Z,99311.28
2023-12-31T09:03:28.986Z,99326.19
2023-12-31T09:06:01.112Z,99323.50
2023-12-31T09:08:33.098Z,99290.97
2023-12-31T09:11:05.397Z,99317.28
2023-12-31T09:13:37.378Z,99319.00
2023-12-31T09:16:09.478Z,99318.13
2023-12-31T09:18:41.587Z,99341.78
2023-12-31T09:21:13.591Z,99343.50
2023-12-31T09:23:45.581Z,99346.13
2023-12-31T09:26:17.561Z,99343.50
2023-12-31T09:28:51.266Z,99344.31
2023-12-31T09:31:26.420Z,99336.44
2023-12-31T09:33:58.782Z,99346.94
2023-12-31T09:36:30.813Z,99362.69
2023-12-31T09:39:02.865Z,99358.28
2023-12-31T09:41:37.232Z,99347.78
2023-12-31T09:44:10.551Z,99360.97
2023-12-31T09:47:03.257Z,99352.22
2023-12-31T09:49:42.201Z,99339.81
2023-12-31T09:52:15.319Z,99360.97
2023-12-31T09:54:47.945Z,99375.81
2023-12-31T09:57:22.038Z,99371.47
2023-12-31T09:59:57.169Z,99379.34
2023-12-31T10:02:29.884Z,99378.41
2023-12-31T10:05:03.182Z,99385.47
2023-12-31T10:07:36.763Z,99373.22
2023-12-31T10:10:11.160Z,99345.19
2023-12-31T10:12:43.183Z,99362.75
2023-12-31T10:15:15.193Z,99357.53
2023-12-31T10:17:48.186Z,99366.31
2023-12-31T10:20:21.515Z,99361.00
2023-12-31T10:22:53.630Z,99373.22
2023-12-31T10:25:25.842Z,99364.38
2023-12-31T10:27:58.444Z,99371.38
2023-12-31T10:30:30.444Z,99356.47
2023-12-31T10:33:11.385Z,99364.22
2023-12-31T10:35:44.629Z,99357.25
2023-12-31T10:38:16.783Z,99364.28
2023-12-31T10:40:48.951Z,99367.69
2023-12-31T10:43:23.004Z,99365.97
2023-12-31T10:45:57.700Z,99372.06
2023-12-31T10:48:33.430Z,99379.00
2023-12-31T10:51:09.695Z,99377.22
2023-12-31T10:53:44.097Z,99378.00
2023-12-31T10:56:18.274Z,99377.91
2023-12-31T10:58:54.376Z,99377.91
2023-12-31T11:01:27.006Z,99378.75
2023-12-31T11:04:00.186Z,99386.66
2023-12-31T11:06:33.359Z,99377.88
2023-12-31T11:09:06.991Z,99382.34
2023-12-31T11:11:39.423Z,99373.56
2023-12-31T11:14:13.915Z,99361.38
2023-12-31T11:17:17.083Z,99363.09
2023-12-31T11:20:13.593Z,99370.13
2023-12-31T11:23:01.784Z,99365.91
2023-12-31T11:25:34.050Z,99369.59
2023-12-31T11:28:08.174Z,99363.44
2023-12-31T11:31:04.129Z,99366.16
2023-12-31T11:33:36.615Z,99373.19
2023-12-31T11:36:17.794Z,99377.53
2023-12-31T11:39:03.760Z,99378.38
2023-12-31T11:41:53.420Z,99380.06
2023-12-31T11:44:47.197Z,99395.78
2023-12-31T11:47:28.031Z,99399.25
2023-12-31T11:50:00.067Z,99401.81
2023-12-31T11:52:44.683Z,99390.34
2023-12-31T11:55:19.541Z,99391.13
2023-12-31T11:57:54.729Z,99397.94
2023-12-31T12:00:28.607Z,99388.19
2023-12-31T12:03:07.009Z,99395.22
2023-12-31T12:05:39.010Z,99398.81
2023-12-31T12:08:12.472Z,99402.63
2023-12-31T12:10:45.090Z,99392.47
2023-12-31T12:13:17.148Z,99403.19
2023-12-31T12:15:49.162Z,99403.28
2023-12-31T12:18:22.815Z,99392.88
2023-12-31T12:20:56.666Z,99394.72
2023-12-31T12:23:28.728Z,99393.00
2023-12-31T12:26:00.865Z,99392.97
2023-12-31T12:28:33.308Z,99392.84
2023-12-31T12:31:07.773Z,99392.72
2023-12-31T12:33:39.822Z,99392.63
2023-12-31T12:36:12.760Z,99386.38
2023-12-31T12:38:47.116Z,99395.91
2023-12-31T12:41:23.284Z,99399.59
2023-12-31T12:44:07.476Z,99403.38
2023-12-31T12:46:42.225Z,99400.94
2023-12-31T12:49:14.925Z,99409.78
2023-12-31T12:51:47.389Z,99401.75
2023-12-31T12:54:23.498Z,99413.00
2023-12-31T12:56:57.553Z,99414.56
2023-12-31T12:59:29.666Z,99408.34
2023-12-31T13:02:03.443Z,99408.19
2023-12-31T13:04:35.446Z,99415.97
2023-12-31T13:07:08.113Z,99412.44
2023-12-31T13:09:40.586Z,99403.69
2023-12-31T13:12:12.808Z,99406.31
2023-12-31T13:14:45.805Z,99416.81
2023-12-31T13:17:19.496Z,99410.66
2023-12-31T13:19:56.076Z,99391.69
2023-12-31T13:22:28.326Z,99403.81
2023-12-31T13:25:00.470Z,99397.66
2023-12-31T13:27:32.469Z,99402.91
2023-12-31T13:30:05.046Z,99409.97
2023-12-31T13:32:37.080Z,99415.19
2023-12-31T13:35:09.318Z,99408.09
2023-12-31T13:37:41.565Z,99411.56
2023-12-31T13:40:13.567Z,99404.56
2023-12-31T13:42:45.563Z,99405.44
2023-12-31T13:45:17.509Z,99411.56
2023-12-31T13:47:50.021Z,99388.81
2023-12-31T13:50:21.934Z,99395.31
2023-12-31T13:52:54.269Z,99392.44
2023-12-31T13:55:26.364Z,99389.78
2023-12-31T13:57:58.488Z,99390.47
2023-12-31T14:00:30.505Z,99387.66
2023-12-31T14:03:06.476Z,99387.50
2023-12-31T14:05:40.036Z,99388.28
2023-12-31T14:08:12.246Z,99379.44
2023-12-31T14:10:44.448Z,99395.09
2023-12-31T14:13:16.387Z,99393.31
2023-12-31T14:15:48.408Z,99388.88
2023-12-31T14:18:20.492Z,99388.03
2023-12-31T14:20:52.534Z,99402.00
2023-12-31T14:23:24.565Z,99395.84
2023-12-31T14:25:56.556Z,99375.50
2023-12-31T14:28:28.553Z,99395.81
2023-12-31T14:31:00.708Z,99401.94
2023-12-31T14:33:33.558Z,99401.94
2023-12-31T14:36:06.318Z,99401.06
2023-12-31T14:38:40.567Z,99401.94
2023-12-31T14:41:12.761Z,99395.81
2023-12-31T14:43:45.269Z,99399.28
2023-12-31T14:46:17.306Z,99404.53
2023-12-31T14:48:49.292Z,99392.28
2023-12-31T14:51:21.443Z,99392.28
2023-12-31T14:53:53.925Z,99387.00
2023-12-31T14:56:28.558Z,99396.59
2023-12-31T14:59:01.248Z,99397.50
2023-12-31T15:01:33.260Z,99389.63
2023-12-31T15:04:05.590Z,99386.16
2023-12-31T15:06:38.360Z,99397.50
2023-12-31T15:09:11.647Z,99391.41
2023-12-31T15:11:45.919Z,99390.56
2023-12-31T15:14:18.269Z,99394.03
2023-12-31T15:16:53.791Z,99391.47
2023-12-31T15:19:26.147Z,99394.94
2023-12-31T15:21:58.485Z,99367.66
2023-12-31T15:24:30.417Z,99396.66
2023-12-31T15:27:02.596Z,99398.41
2023-12-31T15:29:34.630Z,99394.03
2023-12-31T15:32:06.945Z,99409.81
2023-12-31T15:34:40.202Z,99392.28
2023-12-31T15:37:12.192Z,99391.34
2023-12-31T15:39:44.140Z,99394.84
2023-12-31T15:42:16.262Z,99381.13
2023-12-31T15:44:48.675Z,99397.50
2023-12-31T15:47:20.695Z,99386.06
2023-12-31T15:49:52.703Z,99390.44
2023-12-31T15:52:25.222Z,99393.06
2023-12-31T15:54:57.239Z,99391.25
2023-12-31T15:57:29.206Z,99388.66
2023-12-31T16:00:01.557Z,99392.19
2023-12-31T16:02:33.662Z,99392.19
2023-12-31T16:05:06.360Z,99404.41
2023-12-31T16:07:38.439Z,99399.31
2023-12-31T16:10:11.302Z,99362.25
2023-12-31T16:12:43.366Z,99409.69
2023-12-31T16:15:15.358Z,99393.91
2023-12-31T16:17:47.480Z,99386.84
2023-12-31T16:20:20.113Z,99406.19
2023-12-31T16:22:52.112Z,99394.84
2023-12-31T16:25:24.578Z,99404.44
2023-12-31T16:27:56.641Z,99418.41
2023-12-31T16:30:28.650Z,99420.19
2023-12-31T16:33:00.742Z,99411.41
2023-12-31T16:35:32.845Z,99421.00
2023-12-31T16:38:05.234Z,99417.47
2023-12-31T16:40:37.350Z,99401.66
2023-12-31T16:43:09.822Z,99409.50
2023-12-31T16:45:43.429Z,99403.41
2023-12-31T16:48:15.512Z,99400.78
2023-12-31T16:50:47.539Z,99405.16
2023-12-31T16:53:19.534Z,99392.91
2023-12-31T16:55:51.581Z,99394.69
2023-12-31T16:58:23.610Z,99395.53
2023-12-31T17:00:56.045Z,99395.53
2023-12-31T17:03:28.201Z,99392.91
2023-12-31T17:06:02.355Z,99395.53
2023-12-31T17:08:34.383Z,99399.03
2023-12-31T17:11:06.348Z,99396.44
2023-12-31T17:13:39.379Z,99396.44
2023-12-31T17:16:12.378Z,99406.13
2023-12-31T17:18:44.605Z,99411.38
2023-12-31T17:21:17.072Z,99406.16
2023-12-31T17:23:49.032Z,99407.94
2023-12-31T17:26:20.947Z,99410.56
2023-12-31T17:28:52.913Z,99409.66
2023-12-31T17:31:25.530Z,99421.91
2023-12-31T17:33:57.662Z,99402.66
2023-12-31T17:36:29.647Z,99410.59
2023-12-31T17:39:01.578Z,99431.59
2023-12-31T17:41:33.551Z,99416.69
2023-12-31T17:44:05.669Z,99422.78
2023-12-31T17:46:38.117Z,99411.41
2023-12-31T17:49:10.214Z,99414.94
2023-12-31T17:51:43.441Z,99420.22
2023-12-31T17:54:15.478Z,99424.59
2023-12-31T17:56:47.776Z,99408.81
2023-12-31T17:59:19.814Z,99414.03
2023-12-31T18:01:51.890Z,99414.94
2023-12-31T18:04:23.941Z,99418.47
2023-12-31T18:06:56.209Z,99423.66
2023-12-31T18:09:28.169Z,99435.03
2023-12-31T18:12:00.171Z,99428.94
2023-12-31T18:14:32.191Z,99432.44
2023-12-31T18:17:04.405Z,99431.59
2023-12-31T18:19:36.684Z,99465.72
2023-12-31T18:22:08.707Z,99432.38
2023-12-31T18:24:40.658Z,99437.66
2023-12-31T18:27:15.301Z,99430.66
2023-12-31T18:29:52.764Z,99427.16
2023-12-31T18:32:26.985Z,99431.50
2023-12-31T18:34:59.143Z,99438.56
2023-12-31T18:37:31.307Z,99439.47
2023-12-31T18:40:04.727Z,99434.22
2023-12-31T18:42:36.660Z,99444.66
2023-12-31T18:45:09.283Z,99442.03
2023-12-31T18:47:41.422Z,99446.41
2023-12-31T18:50:13.502Z,99439.41
2023-12-31T18:52:45.761Z,99448.19
2023-12-31T18:55:18.191Z,99441.19
2023-12-31T18:57:50.192Z,99447.38
2023-12-31T19:00:22.995Z,99442.94
2023-12-31T19:02:55.044Z,99443.78
2023-12-31T19:05:27.164Z,99452.59
2023-12-31T19:07:59.282Z,99441.19
2023-12-31T19:10:31.357Z,99454.28
2023-12-31T19:13:03.903Z,99460.38
2023-12-31T19:15:35.879Z,99459.50
2023-12-31T19:18:09.380Z,99461.28
2023-12-31T19:20:41.468Z,99449.88
2023-12-31T19:23:14.196Z,99460.34
2023-12-31T19:25:46.404Z,99458.63
2023-12-31T19:28:18.718Z,99468.22
2023-12-31T19:30:50.760Z,99467.38
2023-12-31T19:33:22.914Z,99481.34
2023-12-31T19:35:54.932Z,99491.81
2023-12-31T19:38:26.984Z,99489.97
2023-12-31T19:40:59.840Z,99505.59
2023-12-31T19:43:48.243Z,99506.41
2023-12-31T19:46:27.470Z,99520.31
2023-12-31T19:49:00.291Z,99516.69
2023-12-31T19:51:32.243Z,99502.56
2023-12-31T19:54:04.327Z,99508.66
2023-12-31T19:56:36.591Z,99511.25
2023-12-31T19:59:09.804Z,99504.22
2023-12-31T20:01:42.018Z,99492.69
2023-12-31T20:04:14.038Z,99504.19
2023-12-31T20:06:46.073Z,99505.97
2023-12-31T20:09:18.093Z,99501.59
2023-12-31T20:11:50.273Z,99509.50
2023-12-31T20:14:22.597Z,99498.09
2023-12-31T20:16:54.712Z,99519.13
2023-12-31T20:19:26.719Z,99508.59
2023-12-31T20:21:59.025Z,99509.28
2023-12-31T20:24:31.196Z,99525.09
2023-12-31T20:27:03.199Z,99520.75
2023-12-31T20:29:35.323Z,99528.69
2023-12-31T20:32:08.373Z,99528.72
2023-12-31T20:34:40.756Z,99532.19
2023-12-31T20:37:12.856Z,99536.59
2023-12-31T20:39:45.065Z,99526.06
2023-12-31T20:42:17.087Z,99540.09
2023-12-31T20:44:49.119Z,99540.09
2023-12-31T20:47:21.231Z,99547.09
2023-12-31T20:49:53.777Z,99507.53
2023-12-31T20:52:25.762Z,99546.16
2023-12-31T20:54:57.705Z,99551.34
2023-12-31T20:57:30.752Z,99545.22
2023-12-31T21:00:07.219Z,99559.22
2023-12-31T21:02:39.390Z,99567.91
2023-12-31T21:05:11.486Z,99560.91
2023-12-31T21:07:43.636Z,99560.81
2023-12-31T21:10:15.816Z,99560.75
2023-12-31T21:12:47.817Z,99579.06
2023-12-31T21:15:19.739Z,99559.72
2023-12-31T21:17:51.852Z,99567.63
2023-12-31T21:20:23.847Z,99565.84
2023-12-31T21:23:00.124Z,99575.50
2023-12-31T21:25:37.051Z,99576.34
2023-12-31T21:28:10.407Z,99568.47
2023-12-31T21:30:43.331Z,99566.72
2023-12-31T21:33:15.446Z,99570.22
2023-12-31T21:35:47.516Z,99557.06
2023-12-31T21:38:19.685Z,99565.66
2023-12-31T21:40:51.789Z,99576.16
2023-12-31T21:43:23.750Z,99569.19
2023-12-31T21:45:55.958Z,99572.63
2023-12-31T21:48:27.938Z,99569.06
2023-12-31T21:50:59.939Z,99564.69
2023-12-31T21:53:31.888Z,99550.75
2023-12-31T21:56:18.640Z,99558.56
2023-12-31T21:58:56.035Z,99563.75
2023-12-31T22:01:28.081Z,99558.50
2023-12-31T22:04:00.072Z,99566.38
2023-12-31T22:06:32.456Z,99568.09
2023-12-31T22:09:05.374Z,99561.88
2023-12-31T22:11:37.403Z,99570.66
2023-12-31T22:14:09.416Z,99569.72
2023-12-31T22:16:42.101Z,99576.75
2023-12-31T22:19:14.207Z,99573.16
2023-12-31T22:21:46.328Z,99590.63
2023-12-31T22:24:18.269Z,99593.25
2023-12-31T22:26:50.279Z,99580.16
2023-12-31T22:29:22.300Z,99598.59
2023-12-31T22:31:54.237Z,99597.72
2023-12-31T22:34:26.221Z,99584.59
2023-12-31T22:36:58.306Z,99587.28
2023-12-31T22:39:30.231Z,99600.38
2023-12-31T22:42:02.271Z,99595.19
2023-12-31T22:44:34.228Z,99571.34
2023-12-31T22:47:06.794Z,99607.50
2023-12-31T22:49:38.997Z,99600.56
2023-12-31T22:52:11.102Z,99603.94
2023-12-31T22:54:43.604Z,99611.06
2023-12-31T22:57:15.573Z,99615.47
2023-12-31T22:59:48.061Z,99621.66
2023-12-31T23:02:19.980Z,99621.66
2023-12-31T23:04:51.947Z,99623.38
2023-12-31T23:07:23.973Z,99617.31
2023-12-31T23:09:56.013Z,99624.28
2023-12-31T23:12:28.203Z,99603.25
2023-12-31T23:15:01.572Z,99619.03
2023-12-31T23:17:33.574Z,99615.63
2023-12-31T23:20:11.452Z,99606.91
2023-12-31T23:22:44.447Z,99608.69
2023-12-31T23:25:16.613Z,99604.41
2023-12-31T23:27:48.568Z,99615.75
2023-12-31T23:30:20.565Z,99603.59
2023-12-31T23:32:53.494Z,99614.09
2023-12-31T23:35:25.577Z,99604.50
2023-12-31T23:37:57.604Z,99612.31
2023-12-31T23:40:29.907Z,99613.19
2023-12-31T23:43:01.978Z,99616.72
2023-12-31T23:45:33.959Z,99610.63
2023-12-31T23:48:06.743Z,99623.69
2023-12-31T23:50:38.820Z,99628.94
2023-12-31T23:53:10.967Z,99627.09
2023-12-31T23:55:43.182Z,99632.34
2023-12-31T23:58:17.885Z,99632.34
